Time,TemperatureF,DewpointF,PressureIn,WindDirection,WindDirectionDegrees,WindSpeedMPH,WindSpeedGustMPH,Humidity,HourlyPrecipIn,Conditions,Clouds,dailyrainin,SoftwareType,DateUTC
2013-02-08 00:00:00,23.9,5.2,29.85,ENE,63,0.0,0.0,44,0.00,,---,0.00,VWS V14.01,2013-02-08 05:00:00,
2013-02-08 00:05:00,23.9,5.2,29.85,East,89,12.5,12.5,44,0.00,,---,0.00,VWS V14.01,2013-02-08 05:05:00,
2013-02-08 00:10:00,23.7,5.0,29.83,East,92,7.2,8.1,44,0.00,,---,0.00,VWS V14.01,2013-02-08 05:10:00,
2013-02-08 00:15:00,23.7,5.0,29.83,East,93,8.1,11.6,44,0.00,,---,0.00,VWS V14.01,2013-02-08 05:15:00,
2013-02-08 00:20:00,23.9,5.2,29.83,ENE,69,6.3,6.3,44,0.00,,---,0.00,VWS V14.01,2013-02-08 05:20:00,
2013-02-08 00:25:00,23.9,6.6,29.83,East,98,9.8,9.8,47,0.00,,---,0.00,VWS V14.01,2013-02-08 05:25:00,
2013-02-08 00:30:00,23.7,6.4,29.83,East,86,9.8,9.8,47,0.00,,---,0.00,VWS V14.01,2013-02-08 05:30:00,
2013-02-08 00:35:00,23.7,6.4,29.83,NE,51,9.8,9.8,47,0.00,,---,0.00,VWS V14.01,2013-02-08 05:35:00,
2013-02-08 00:40:00,23.7,6.4,29.83,ENE,62,5.4,5.4,47,0.00,,---,0.00,VWS V14.01,2013-02-08 05:40:00,
2013-02-08 00:45:00,23.7,6.4,29.83,East,86,12.5,12.5,47,0.00,,---,0.00,VWS V14.01,2013-02-08 05:45:00,
2013-02-08 00:50:00,23.9,7.5,29.83,ENE,58,10.7,11.6,49,0.00,,---,0.00,VWS V14.01,2013-02-08 05:50:00,
2013-02-08 00:55:00,23.9,7.5,29.83,East,87,9.8,9.8,49,0.00,,---,0.00,VWS V14.01,2013-02-08 05:55:00,
2013-02-08 01:00:00,24.1,9.0,29.83,SE,128,7.2,7.2,52,0.00,,---,0.00,VWS V14.01,2013-02-08 06:00:00,
2013-02-08 01:05:00,24.1,9.0,29.83,NE,48,4.5,8.1,52,0.00,,---,0.00,VWS V14.01,2013-02-08 06:05:00,
2013-02-08 01:10:00,24.1,9.0,29.80,ENE,77,8.1,10.7,52,0.00,,---,0.00,VWS V14.01,2013-02-08 06:10:00,
2013-02-08 01:15:00,24.3,9.6,29.80,ENE,73,0.0,11.6,53,0.00,,---,0.00,VWS V14.01,2013-02-08 06:15:00,
2013-02-08 01:20:00,24.3,9.6,29.80,East,93,8.1,8.1,53,0.00,,---,0.00,VWS V14.01,2013-02-08 06:20:00,
2013-02-08 01:25:00,24.3,9.6,29.80,East,80,16.1,16.1,53,0.00,,---,0.00,VWS V14.01,2013-02-08 06:25:00,
2013-02-08 01:30:00,24.3,9.6,29.80,East,100,8.1,11.6,53,0.00,,---,0.00,VWS V14.01,2013-02-08 06:30:00,
2013-02-08 01:35:00,24.4,9.8,29.80,ENE,64,5.4,5.4,53,0.00,,---,0.00,VWS V14.01,2013-02-08 06:35:00,
2013-02-08 01:40:00,24.4,10.2,29.80,ESE,112,7.2,7.2,54,0.00,,---,0.00,VWS V14.01,2013-02-08 06:40:00,
2013-02-08 01:45:00,24.4,10.2,29.80,East,96,10.7,10.7,54,0.00,,---,0.00,VWS V14.01,2013-02-08 06:45:00,
2013-02-08 01:50:00,24.4,10.2,29.80,East,89,0.0,0.0,54,0.00,,---,0.00,VWS V14.01,2013-02-08 06:50:00,
2013-02-08 01:55:00,24.4,10.2,29.80,East,99,8.1,8.1,54,0.00,,---,0.00,VWS V14.01,2013-02-08 06:55:00,
2013-02-08 02:00:00,24.3,10.4,29.80,NE,52,6.3,6.3,55,0.00,,---,0.00,VWS V14.01,2013-02-08 07:00:00,
2013-02-08 02:05:00,24.4,11.0,29.80,NE,54,8.1,8.1,56,0.00,,---,0.00,VWS V14.01,2013-02-08 07:05:00,
2013-02-08 02:10:00,24.6,11.2,29.80,NE,54,0.0,0.0,56,0.00,,---,0.00,VWS V14.01,2013-02-08 07:10:00,
2013-02-08 02:15:00,24.8,11.3,29.77,East,82,5.4,5.4,56,0.00,,---,0.00,VWS V14.01,2013-02-08 07:15:00,
2013-02-08 02:20:00,25.0,11.5,29.77,East,83,6.3,6.3,56,0.00,,---,0.00,VWS V14.01,2013-02-08 07:20:00,
2013-02-08 02:25:00,25.0,11.9,29.77,ENE,65,0.0,0.0,57,0.00,,---,0.00,VWS V14.01,2013-02-08 07:25:00,
2013-02-08 02:30:00,24.8,11.7,29.77,East,91,7.2,7.2,57,0.00,,---,0.00,VWS V14.01,2013-02-08 07:30:00,
2013-02-08 02:35:00,24.8,11.7,29.77,East,93,5.4,5.4,57,0.00,,---,0.00,VWS V14.01,2013-02-08 07:35:00,
2013-02-08 02:40:00,25.0,12.7,29.77,East,98,0.0,4.5,59,0.00,,---,0.00,VWS V14.01,2013-02-08 07:40:00,
2013-02-08 02:45:00,25.0,13.1,29.77,East,82,7.2,7.2,60,0.00,,---,0.00,VWS V14.01,2013-02-08 07:45:00,
2013-02-08 02:50:00,25.2,13.2,29.77,East,86,0.0,0.0,60,0.00,,---,0.00,VWS V14.01,2013-02-08 07:50:00,
2013-02-08 02:55:00,25.3,13.8,29.77,East,97,0.0,0.0,61,0.00,,---,0.00,VWS V14.01,2013-02-08 07:55:00,
2013-02-08 03:00:00,25.5,14.0,29.77,ENE,75,9.8,9.8,61,0.00,,---,0.00,VWS V14.01,2013-02-08 08:00:00,
2013-02-08 03:05:00,25.7,14.1,29.77,East,80,0.0,0.0,61,0.00,,---,0.00,VWS V14.01,2013-02-08 08:05:00,
2013-02-08 03:10:00,25.9,14.7,29.77,ENE,61,11.6,11.6,62,0.00,,---,0.00,VWS V14.01,2013-02-08 08:10:00,
2013-02-08 03:15:00,26.1,14.8,29.77,ENE,69,0.0,0.0,62,0.00,,---,0.00,VWS V14.01,2013-02-08 08:15:00,
2013-02-08 03:20:00,26.1,14.8,29.77,ENE,70,10.7,12.5,62,0.00,,---,0.00,VWS V14.01,2013-02-08 08:20:00,
2013-02-08 03:25:00,26.1,14.8,29.77,ENE,74,5.4,5.4,62,0.00,,---,0.00,VWS V14.01,2013-02-08 08:25:00,
2013-02-08 03:30:00,26.4,15.2,29.77,ENE,77,6.3,6.3,62,0.00,,---,0.00,VWS V14.01,2013-02-08 08:30:00,
2013-02-08 03:35:00,26.4,15.2,29.77,ENE,77,6.3,6.3,62,0.00,,---,0.00,VWS V14.01,2013-02-08 08:35:00,
2013-02-08 03:40:00,26.6,15.4,29.77,ENE,60,5.4,12.5,62,0.00,,---,0.00,VWS V14.01,2013-02-08 08:40:00,
2013-02-08 03:45:00,26.6,15.4,29.77,East,84,12.5,12.5,62,0.00,,---,0.00,VWS V14.01,2013-02-08 08:45:00,
2013-02-08 03:50:00,26.8,15.5,29.74,SE,124,10.7,10.7,62,0.00,,---,0.00,VWS V14.01,2013-02-08 08:50:00,
2013-02-08 03:55:00,26.8,15.9,29.74,NE,38,9.8,9.8,63,0.00,,---,0.00,VWS V14.01,2013-02-08 08:55:00,
2013-02-08 04:00:00,27.0,16.1,29.74,East,93,7.2,10.7,63,0.00,,---,0.00,VWS V14.01,2013-02-08 09:00:00,
2013-02-08 04:05:00,27.0,16.1,29.74,ESE,120,11.6,11.6,63,0.00,,---,0.00,VWS V14.01,2013-02-08 09:05:00,
2013-02-08 04:10:00,27.0,16.1,29.74,ENE,60,11.6,11.6,63,0.00,,---,0.00,VWS V14.01,2013-02-08 09:10:00,
2013-02-08 04:15:00,27.1,16.2,29.74,ENE,69,10.7,10.7,63,0.00,,---,0.00,VWS V14.01,2013-02-08 09:15:00,
2013-02-08 04:20:00,27.3,16.8,29.74,ENE,73,11.6,11.6,64,0.00,,---,0.00,VWS V14.01,2013-02-08 09:20:00,
2013-02-08 04:25:00,27.3,16.8,29.74,ENE,75,5.4,5.4,64,0.00,,---,0.00,VWS V14.01,2013-02-08 09:25:00,
2013-02-08 04:30:00,27.5,17.3,29.71,SE,125,9.8,9.8,65,0.00,,---,0.00,VWS V14.01,2013-02-08 09:30:00,
2013-02-08 04:35:00,27.5,17.3,29.71,ENE,66,17.4,17.4,65,0.00,,---,0.00,VWS V14.01,2013-02-08 09:35:00,
2013-02-08 04:40:00,27.5,17.3,29.71,East,89,11.6,11.6,65,0.00,,---,0.00,VWS V14.01,2013-02-08 09:40:00,
2013-02-08 04:45:00,27.7,17.5,29.71,East,82,4.5,4.5,65,0.00,,---,0.00,VWS V14.01,2013-02-08 09:45:00,
2013-02-08 04:50:00,27.7,17.5,29.71,East,97,5.4,5.4,65,0.00,,---,0.00,VWS V14.01,2013-02-08 09:50:00,
2013-02-08 04:55:00,27.9,17.6,29.68,ENE,62,19.2,19.2,65,0.00,,---,0.00,VWS V14.01,2013-02-08 09:55:00,
2013-02-08 05:00:00,28.0,18.2,29.68,NE,47,9.8,10.7,66,0.00,,---,0.00,VWS V14.01,2013-02-08 10:00:00,
2013-02-08 05:05:00,28.2,18.3,29.68,ENE,77,6.3,6.3,66,0.00,,---,0.00,VWS V14.01,2013-02-08 10:05:00,
2013-02-08 05:10:00,28.2,18.3,29.68,ENE,65,7.2,7.2,66,0.00,,---,0.00,VWS V14.01,2013-02-08 10:10:00,
2013-02-08 05:15:00,28.4,18.5,29.68,East,92,0.0,0.0,66,0.00,,---,0.00,VWS V14.01,2013-02-08 10:15:00,
2013-02-08 05:20:00,28.6,18.7,29.68,ESE,110,7.2,8.1,66,0.00,,---,0.00,VWS V14.01,2013-02-08 10:20:00,
2013-02-08 05:25:00,28.6,18.7,29.68,SE,137,0.0,0.0,66,0.00,,---,0.00,VWS V14.01,2013-02-08 10:25:00,
2013-02-08 05:30:00,28.8,18.9,29.68,East,85,11.6,11.6,66,0.00,,---,0.00,VWS V14.01,2013-02-08 10:30:00,
2013-02-08 05:35:00,28.8,18.9,29.68,East,98,5.4,5.4,66,0.00,,---,0.00,VWS V14.01,2013-02-08 10:35:00,
2013-02-08 05:40:00,28.9,19.0,29.68,ENE,57,7.2,7.2,66,0.00,,---,0.00,VWS V14.01,2013-02-08 10:40:00,
2013-02-08 05:45:00,29.1,19.2,29.68,East,92,8.1,8.1,66,0.00,,---,0.00,VWS V14.01,2013-02-08 10:45:00,
2013-02-08 05:50:00,29.1,19.2,29.68,East,97,7.2,11.6,66,0.00,,---,0.00,VWS V14.01,2013-02-08 10:50:00,
2013-02-08 05:55:00,29.3,19.4,29.68,ESE,112,10.7,10.7,66,0.00,,---,0.00,VWS V14.01,2013-02-08 10:55:00,
2013-02-08 06:00:00,29.3,19.4,29.68,ENE,59,8.1,8.1,66,0.00,,---,0.00,VWS V14.01,2013-02-08 11:00:00,
2013-02-08 06:05:00,29.5,19.5,29.68,NE,55,7.2,7.2,66,0.00,,---,0.00,VWS V14.01,2013-02-08 11:05:00,
2013-02-08 06:10:00,29.7,19.7,29.65,NE,42,12.5,12.5,66,0.00,,---,0.00,VWS V14.01,2013-02-08 11:10:00,
2013-02-08 06:15:00,29.7,19.4,29.65,SSE,163,10.7,10.7,65,0.00,,---,0.00,VWS V14.01,2013-02-08 11:15:00,
2013-02-08 06:20:00,29.8,19.5,29.65,ENE,76,5.4,5.4,65,0.00,,---,0.00,VWS V14.01,2013-02-08 11:20:00,
2013-02-08 06:25:00,29.8,19.5,29.65,East,97,6.3,12.5,65,0.00,,---,0.00,VWS V14.01,2013-02-08 11:25:00,
2013-02-08 06:30:00,30.0,19.7,29.65,ESE,118,7.2,7.2,65,0.00,,---,0.00,VWS V14.01,2013-02-08 11:30:00,
2013-02-08 06:35:00,30.0,19.7,29.65,SE,128,6.3,6.3,65,0.00,,---,0.00,VWS V14.01,2013-02-08 11:35:00,
2013-02-08 06:40:00,30.2,19.9,29.65,ENE,58,7.2,8.1,65,0.00,,---,0.00,VWS V14.01,2013-02-08 11:40:00,
2013-02-08 06:45:00,30.4,19.7,29.65,ENE,62,16.1,16.1,64,0.00,,---,0.00,VWS V14.01,2013-02-08 11:45:00,
2013-02-08 06:50:00,30.4,19.7,29.65,South,187,6.3,16.6,64,0.00,,---,0.00,VWS V14.01,2013-02-08 11:50:00,
2013-02-08 06:55:00,30.6,19.9,29.65,East,87,8.1,8.1,64,0.00,,---,0.00,VWS V14.01,2013-02-08 11:55:00,
2013-02-08 07:00:00,30.6,19.5,29.65,ENE,61,11.6,11.6,63,0.00,,---,0.00,VWS V14.01,2013-02-08 12:00:00,
2013-02-08 07:05:00,30.7,19.6,29.65,East,82,7.2,7.2,63,0.00,,---,0.00,VWS V14.01,2013-02-08 12:05:00,
2013-02-08 07:10:00,30.9,19.8,29.65,NNE,33,10.7,10.7,63,0.00,,---,0.00,VWS V14.01,2013-02-08 12:10:00,
2013-02-08 07:15:00,30.9,19.8,29.65,ESE,109,8.1,8.1,63,0.00,,---,0.00,VWS V14.01,2013-02-08 12:15:00,
2013-02-08 07:20:00,30.9,19.5,29.65,SE,133,16.6,16.6,62,0.00,,---,0.00,VWS V14.01,2013-02-08 12:20:00,
2013-02-08 07:25:00,31.1,19.6,29.62,SSE,160,4.5,5.4,62,0.00,,---,0.00,VWS V14.01,2013-02-08 12:25:00,
2013-02-08 07:30:00,31.1,19.6,29.62,ENE,66,12.5,12.5,62,0.00,,---,0.00,VWS V14.01,2013-02-08 12:30:00,
2013-02-08 07:35:00,31.1,19.6,29.62,ESE,105,13.4,13.4,62,0.00,,---,0.00,VWS V14.01,2013-02-08 12:35:00,
2013-02-08 07:40:00,31.1,19.6,29.62,East,97,6.3,7.2,62,0.00,,---,0.00,VWS V14.01,2013-02-08 12:40:00,
2013-02-08 07:45:00,31.1,19.6,29.62,ESE,117,15.2,15.2,62,0.00,,---,0.00,VWS V14.01,2013-02-08 12:45:00,
2013-02-08 07:50:00,31.1,19.6,29.62,ESE,123,16.1,16.1,62,0.00,,---,0.00,VWS V14.01,2013-02-08 12:50:00,
2013-02-08 07:55:00,31.3,19.8,29.62,East,100,4.5,4.5,62,0.00,,---,0.00,VWS V14.01,2013-02-08 12:55:00,
2013-02-08 08:00:00,31.1,20.4,29.62,ESE,114,12.5,12.5,64,0.00,,---,0.00,VWS V14.01,2013-02-08 13:00:00,
2013-02-08 08:05:00,31.1,20.7,29.62,ESE,123,7.2,12.5,65,0.00,,---,0.00,VWS V14.01,2013-02-08 13:05:00,
2013-02-08 08:10:00,30.9,22.0,29.62,SE,132,25.5,25.5,69,0.00,,---,0.00,VWS V14.01,2013-02-08 13:10:00,
2013-02-08 08:15:00,30.9,22.3,29.62,East,89,12.5,12.5,70,0.00,,---,0.00,VWS V14.01,2013-02-08 13:15:00,
2013-02-08 08:20:00,30.9,22.6,29.62,ENE,74,13.4,13.4,71,0.00,,---,0.00,VWS V14.01,2013-02-08 13:20:00,
2013-02-08 08:25:00,30.9,23.0,29.62,East,92,21.9,21.9,72,0.00,,---,0.00,VWS V14.01,2013-02-08 13:25:00,
2013-02-08 08:30:00,31.1,23.1,29.62,East,99,17.4,17.4,72,0.00,,---,0.00,VWS V14.01,2013-02-08 13:30:00,
2013-02-08 08:35:00,31.1,23.5,29.62,ESE,103,5.4,5.4,73,0.00,,---,0.00,VWS V14.01,2013-02-08 13:35:00,
2013-02-08 08:40:00,31.1,23.5,29.59,ESE,107,6.3,6.3,73,0.00,,---,0.00,VWS V14.01,2013-02-08 13:40:00,
2013-02-08 08:45:00,31.1,23.5,29.59,East,94,6.3,6.3,73,0.00,,---,0.00,VWS V14.01,2013-02-08 13:45:00,
2013-02-08 08:50:00,31.1,23.5,29.59,East,99,16.1,16.1,73,0.00,,---,0.00,VWS V14.01,2013-02-08 13:50:00,
2013-02-08 08:55:00,31.1,23.8,29.59,NE,46,18.3,18.3,74,0.00,,---,0.00,VWS V14.01,2013-02-08 13:55:00,
2013-02-08 09:00:00,31.1,23.8,29.59,East,100,12.5,12.5,74,0.00,,---,0.00,VWS V14.01,2013-02-08 14:00:00,
2013-02-08 09:05:00,31.1,23.8,29.59,ESE,112,6.3,6.3,74,0.00,,---,0.00,VWS V14.01,2013-02-08 14:05:00,
2013-02-08 09:10:00,31.1,24.1,29.59,East,82,25.5,25.5,75,0.00,,---,0.00,VWS V14.01,2013-02-08 14:10:00,
2013-02-08 09:15:00,31.1,24.4,29.59,ENE,64,10.7,12.5,76,0.00,,---,0.00,VWS V14.01,2013-02-08 14:15:00,
2013-02-08 09:20:00,31.3,24.6,29.59,East,91,7.2,7.2,76,0.00,,---,0.00,VWS V14.01,2013-02-08 14:20:00,
2013-02-08 09:25:00,31.3,24.6,29.59,ENE,78,8.1,8.1,76,0.00,,---,0.00,VWS V14.01,2013-02-08 14:25:00,
2013-02-08 09:30:00,31.3,24.6,29.59,ENE,70,7.2,7.2,76,0.00,,---,0.00,VWS V14.01,2013-02-08 14:30:00,
2013-02-08 09:35:00,31.3,24.3,29.59,NE,40,7.2,7.2,75,0.00,,---,0.00,VWS V14.01,2013-02-08 14:35:00,
2013-02-08 09:40:00,31.5,24.8,29.59,ESE,111,12.5,12.5,76,0.00,,---,0.00,VWS V14.01,2013-02-08 14:40:00,
2013-02-08 09:45:00,31.5,24.8,29.59,East,86,6.3,6.3,76,0.00,,---,0.00,VWS V14.01,2013-02-08 14:45:00,
2013-02-08 09:50:00,31.5,24.8,29.59,ESE,109,8.1,20.1,76,0.00,,---,0.00,VWS V14.01,2013-02-08 14:50:00,
2013-02-08 09:55:00,31.5,25.1,29.56,ENE,78,7.2,16.1,77,0.00,,---,0.00,VWS V14.01,2013-02-08 14:55:00,
2013-02-08 10:00:00,31.3,24.9,29.56,ENE,69,10.7,24.6,77,0.00,,---,0.00,VWS V14.01,2013-02-08 15:00:00,
2013-02-08 10:05:00,31.3,24.9,29.56,East,90,11.6,11.6,77,0.00,,---,0.00,VWS V14.01,2013-02-08 15:05:00,
2013-02-08 10:10:00,31.3,24.6,29.56,NE,40,10.7,10.7,76,0.00,,---,0.00,VWS V14.01,2013-02-08 15:10:00,
2013-02-08 10:15:00,31.3,24.6,29.56,ENE,62,11.6,11.6,76,0.00,,---,0.00,VWS V14.01,2013-02-08 15:15:00,
2013-02-08 10:20:00,31.3,24.6,29.56,ENE,76,5.4,5.4,76,0.00,,---,0.00,VWS V14.01,2013-02-08 15:20:00,
2013-02-08 10:25:00,31.3,24.6,29.53,East,90,17.4,17.4,76,0.00,,---,0.00,VWS V14.01,2013-02-08 15:25:00,
2013-02-08 10:30:00,31.3,24.6,29.53,ENE,72,6.3,7.2,76,0.00,,---,0.00,VWS V14.01,2013-02-08 15:30:00,
2013-02-08 10:35:00,31.3,24.6,29.53,ESE,120,12.5,12.5,76,0.00,,---,0.00,VWS V14.01,2013-02-08 15:35:00,
2013-02-08 10:40:00,31.3,24.6,29.53,East,89,10.7,10.7,76,0.00,,---,0.00,VWS V14.01,2013-02-08 15:40:00,
2013-02-08 10:45:00,31.3,24.6,29.53,ENE,63,12.5,12.5,76,0.00,,---,0.00,VWS V14.01,2013-02-08 15:45:00,
2013-02-08 10:50:00,31.3,24.6,29.53,East,89,5.4,5.4,76,0.00,,---,0.00,VWS V14.01,2013-02-08 15:50:00,
2013-02-08 10:55:00,31.3,24.6,29.50,East,86,10.7,10.7,76,0.00,,---,0.00,VWS V14.01,2013-02-08 15:55:00,
2013-02-08 11:00:00,31.5,24.8,29.50,NNE,24,5.4,5.4,76,0.00,,---,0.00,VWS V14.01,2013-02-08 16:00:00,
2013-02-08 11:05:00,31.5,24.8,29.50,ENE,61,8.1,8.1,76,0.00,,---,0.00,VWS V14.01,2013-02-08 16:05:00,
2013-02-08 11:10:00,31.5,24.8,29.50,ENE,64,12.5,15.2,76,0.00,,---,0.00,VWS V14.01,2013-02-08 16:10:00,
2013-02-08 11:15:00,31.3,24.6,29.50,SE,141,9.8,10.7,76,0.00,,---,0.00,VWS V14.01,2013-02-08 16:15:00,
2013-02-08 11:20:00,31.3,24.6,29.50,North,11,10.7,10.7,76,0.00,,---,0.00,VWS V14.01,2013-02-08 16:20:00,
2013-02-08 11:25:00,31.5,25.1,29.50,ENE,64,11.6,11.6,77,0.00,,---,0.00,VWS V14.01,2013-02-08 16:25:00,
2013-02-08 11:30:00,31.5,25.1,29.47,NE,52,5.4,8.1,77,0.00,,---,0.00,VWS V14.01,2013-02-08 16:30:00,
2013-02-08 11:35:00,31.5,25.1,29.47,ESE,105,5.4,7.2,77,0.00,,---,0.00,VWS V14.01,2013-02-08 16:35:00,
2013-02-08 11:40:00,31.5,25.1,29.44,ENE,58,8.1,8.1,77,0.00,,---,0.00,VWS V14.01,2013-02-08 16:40:00,
2013-02-08 11:45:00,31.6,25.0,29.44,NE,52,12.5,16.6,76,0.00,,---,0.00,VWS V14.01,2013-02-08 16:45:00,
2013-02-08 11:50:00,31.6,25.0,29.44,East,81,10.7,10.7,76,0.00,,---,0.00,VWS V14.01,2013-02-08 16:50:00,
2013-02-08 11:55:00,31.8,25.4,29.44,East,93,12.5,12.5,77,0.00,,---,0.00,VWS V14.01,2013-02-08 16:55:00,
2013-02-08 12:00:00,31.8,25.1,29.44,ESE,118,12.5,12.5,76,0.00,,---,0.00,VWS V14.01,2013-02-08 17:00:00,
2013-02-08 12:05:00,31.8,25.4,29.44,ENE,74,20.1,20.1,77,0.00,,---,0.00,VWS V14.01,2013-02-08 17:05:00,
2013-02-08 12:10:00,31.8,25.4,29.41,East,96,8.1,16.6,77,0.00,,---,0.00,VWS V14.01,2013-02-08 17:10:00,
2013-02-08 12:15:00,31.8,25.8,29.41,SE,139,10.7,10.7,78,0.00,,---,0.00,VWS V14.01,2013-02-08 17:15:00,
2013-02-08 12:20:00,31.8,26.1,29.41,ENE,68,4.5,6.3,79,0.00,,---,0.00,VWS V14.01,2013-02-08 17:20:00,
2013-02-08 12:25:00,31.8,26.4,29.41,East,88,14.3,16.1,80,0.00,,---,0.00,VWS V14.01,2013-02-08 17:25:00,
2013-02-08 12:30:00,31.8,26.7,29.41,NE,45,20.1,20.1,81,0.00,,---,0.00,VWS V14.01,2013-02-08 17:30:00,
2013-02-08 12:35:00,31.8,27.0,29.41,ENE,60,11.6,16.6,82,0.00,,---,0.00,VWS V14.01,2013-02-08 17:35:00,
2013-02-08 12:40:00,31.8,27.8,29.41,ENE,64,16.1,16.1,85,0.00,,---,0.00,VWS V14.01,2013-02-08 17:40:00,
2013-02-08 12:45:00,32.0,28.6,29.38,East,99,11.6,11.6,87,0.00,,---,0.00,VWS V14.01,2013-02-08 17:45:00,
2013-02-08 12:50:00,32.0,28.9,29.38,East,80,8.1,8.1,88,0.00,,---,0.00,VWS V14.01,2013-02-08 17:50:00,
2013-02-08 12:55:00,32.2,29.6,29.38,East,94,10.7,10.7,90,0.00,,---,0.00,VWS V14.01,2013-02-08 17:55:00,
2013-02-08 13:00:00,32.2,29.6,29.38,East,96,11.6,11.6,90,0.00,,---,0.00,VWS V14.01,2013-02-08 18:00:00,
2013-02-08 13:05:00,32.2,29.6,29.38,ENE,63,16.6,16.6,90,0.00,,---,0.00,VWS V14.01,2013-02-08 18:05:00,
2013-02-08 13:10:00,32.4,30.0,29.35,North,0,9.8,9.8,91,0.00,,---,0.00,VWS V14.01,2013-02-08 18:10:00,
2013-02-08 13:15:00,32.4,30.3,29.35,East,98,6.3,7.2,92,0.00,,---,0.00,VWS V14.01,2013-02-08 18:15:00,
2013-02-08 13:20:00,32.5,30.5,29.35,NE,43,16.1,16.1,92,0.00,,---,0.00,VWS V14.01,2013-02-08 18:20:00,
2013-02-08 13:25:00,32.5,30.7,29.32,ESE,106,9.8,9.8,93,0.00,,---,0.00,VWS V14.01,2013-02-08 18:25:00,
2013-02-08 13:30:00,32.5,30.7,29.32,ENE,62,10.7,10.7,93,0.00,,---,0.00,VWS V14.01,2013-02-08 18:30:00,
2013-02-08 13:35:00,32.5,31.0,29.32,ESE,111,7.2,7.2,94,0.00,,---,0.00,VWS V14.01,2013-02-08 18:35:00,
2013-02-08 13:41:00,32.5,31.0,29.32,ESE,105,9.8,9.8,94,0.00,,---,0.00,VWS V14.01,2013-02-08 18:41:00,
2013-02-08 13:46:00,32.7,31.5,29.32,NE,56,11.6,11.6,95,0.00,,---,0.00,VWS V14.01,2013-02-08 18:46:00,
2013-02-08 13:50:00,32.7,31.5,29.32,ENE,75,6.3,6.3,95,0.00,,---,0.00,VWS V14.01,2013-02-08 18:50:00,
2013-02-08 13:55:00,32.7,31.5,29.29,NNW,337,8.1,8.1,95,0.00,,---,0.00,VWS V14.01,2013-02-08 18:55:00,
2013-02-08 14:00:00,32.7,31.7,29.29,ENE,61,6.3,12.5,96,0.00,,---,0.00,VWS V14.01,2013-02-08 19:00:00,
2013-02-08 14:05:00,32.9,31.9,29.29,ENE,75,7.2,7.2,96,0.00,,---,0.00,VWS V14.01,2013-02-08 19:05:00,
2013-02-08 14:10:00,32.9,32.1,29.29,East,86,5.4,5.4,97,0.00,,---,0.00,VWS V14.01,2013-02-08 19:10:00,
2013-02-08 14:16:00,32.9,32.1,29.29,ENE,58,11.6,11.6,97,0.00,,---,0.00,VWS V14.01,2013-02-08 19:16:00,
2013-02-08 14:21:00,32.9,32.4,29.29,ESE,123,7.2,7.2,98,0.00,,---,0.00,VWS V14.01,2013-02-08 19:21:00,
2013-02-08 14:26:00,32.9,32.4,29.26,ENE,75,16.1,16.1,98,0.00,,---,0.00,VWS V14.01,2013-02-08 19:26:00,
2013-02-08 14:31:00,32.9,32.4,29.26,East,95,7.2,7.2,98,0.00,,---,0.00,VWS V14.01,2013-02-08 19:31:00,
2013-02-08 14:36:00,32.9,32.4,29.26,NNE,30,16.6,16.6,98,0.00,,---,0.00,VWS V14.01,2013-02-08 19:36:00,
2013-02-08 14:40:00,32.9,32.4,29.23,ENE,57,16.6,16.6,98,0.00,,---,0.00,VWS V14.01,2013-02-08 19:40:00,
2013-02-08 14:45:00,32.9,32.7,29.23,East,79,4.5,7.2,99,0.00,,---,0.00,VWS V14.01,2013-02-08 19:45:00,
2013-02-08 14:50:00,32.9,32.7,29.23,ENE,64,6.3,10.7,99,0.00,,---,0.00,VWS V14.01,2013-02-08 19:50:00,
2013-02-08 14:55:00,32.9,32.7,29.23,NE,56,8.1,14.3,99,0.00,,---,0.00,VWS V14.01,2013-02-08 19:55:00,
2013-02-08 15:00:00,32.9,32.9,29.23,NE,53,16.6,16.6,100,0.00,,---,0.00,VWS V14.01,2013-02-08 20:00:00,
2013-02-08 15:05:00,32.7,32.7,29.23,NE,39,8.1,11.6,100,0.00,,---,0.00,VWS V14.01,2013-02-08 20:05:00,
2013-02-08 15:10:00,32.9,32.9,29.21,ENE,73,24.6,24.6,100,0.00,,---,0.00,VWS V14.01,2013-02-08 20:10:00,
2013-02-08 15:15:00,32.7,32.7,29.21,NE,49,15.2,15.2,100,0.00,,---,0.00,VWS V14.01,2013-02-08 20:15:00,
2013-02-08 15:21:00,32.7,32.7,29.21,East,82,8.1,8.1,100,0.00,,---,0.00,VWS V14.01,2013-02-08 20:21:00,
2013-02-08 15:26:00,32.7,32.7,29.18,ENE,64,6.3,18.3,100,0.00,,---,0.00,VWS V14.01,2013-02-08 20:26:00,
2013-02-08 15:31:00,32.7,32.7,29.18,NNE,25,12.5,16.6,100,0.00,,---,0.00,VWS V14.01,2013-02-08 20:31:00,
2013-02-08 15:36:00,32.7,32.7,29.18,East,84,20.1,20.1,100,0.00,,---,0.00,VWS V14.01,2013-02-08 20:36:00,
2013-02-08 15:41:00,32.7,32.7,29.18,East,84,6.3,15.2,100,0.00,,---,0.00,VWS V14.01,2013-02-08 20:41:00,
2013-02-08 15:46:00,32.7,32.7,29.18,East,83,14.3,17.4,100,0.00,,---,0.00,VWS V14.01,2013-02-08 20:46:00,
2013-02-08 15:51:00,32.7,32.7,29.18,North,3,23.7,23.7,100,0.00,,---,0.00,VWS V14.01,2013-02-08 20:51:00,
2013-02-08 15:56:00,32.7,32.7,29.15,ENE,60,8.1,14.3,100,0.00,,---,0.00,VWS V14.01,2013-02-08 20:56:00,
2013-02-08 16:01:00,32.7,32.7,29.15,North,6,9.8,9.8,100,0.00,,---,0.00,VWS V14.01,2013-02-08 21:01:00,
2013-02-08 16:06:00,32.7,32.7,29.15,NNW,332,16.6,16.6,100,0.00,,---,0.00,VWS V14.01,2013-02-08 21:06:00,
2013-02-08 16:11:00,32.7,32.7,29.15,NE,55,14.3,15.2,100,0.00,,---,0.00,VWS V14.01,2013-02-08 21:11:00,
2013-02-08 16:15:00,32.7,32.7,29.15,ENE,71,5.4,14.3,100,0.00,,---,0.00,VWS V14.01,2013-02-08 21:15:00,
2013-02-08 16:20:00,32.7,32.7,29.15,East,93,10.7,10.7,100,0.00,,---,0.00,VWS V14.01,2013-02-08 21:20:00,
2013-02-08 16:25:00,32.7,32.7,29.12,East,86,10.7,10.7,100,0.00,,---,0.00,VWS V14.01,2013-02-08 21:25:00,
2013-02-08 16:31:00,32.7,32.7,29.12,NNE,33,26.4,26.4,100,0.00,,---,0.00,VWS V14.01,2013-02-08 21:31:00,
2013-02-08 16:36:00,32.7,32.7,29.12,NNE,25,8.1,8.1,100,0.00,,---,0.00,VWS V14.01,2013-02-08 21:36:00,
2013-02-08 16:41:00,32.7,32.7,29.12,NE,36,10.7,16.6,100,0.00,,---,0.00,VWS V14.01,2013-02-08 21:41:00,
2013-02-08 16:46:00,32.7,32.7,29.09,NE,56,10.7,10.7,100,0.00,,---,0.00,VWS V14.01,2013-02-08 21:46:00,
2013-02-08 16:51:00,32.9,32.9,29.09,NE,38,9.8,9.8,100,0.00,,---,0.00,VWS V14.01,2013-02-08 21:51:00,
2013-02-08 16:55:00,32.9,32.9,29.12,NNE,16,17.4,17.4,100,0.00,,---,0.00,VWS V14.01,2013-02-08 21:55:00,
2013-02-08 17:00:00,32.9,32.9,29.12,ENE,76,21.0,21.9,100,0.00,,---,0.00,VWS V14.01,2013-02-08 22:00:00,
2013-02-08 17:05:00,32.9,32.9,29.12,NE,49,8.1,10.7,100,0.00,,---,0.00,VWS V14.01,2013-02-08 22:05:00,
2013-02-08 17:10:00,32.9,32.9,29.12,NNE,30,4.5,16.6,100,0.00,,---,0.00,VWS V14.01,2013-02-08 22:10:00,
2013-02-08 17:15:00,32.9,32.9,29.09,ENE,65,21.0,21.0,100,0.00,,---,0.00,VWS V14.01,2013-02-08 22:15:00,
2013-02-08 17:20:00,32.9,32.9,29.09,ESE,108,7.2,10.7,100,0.00,,---,0.00,VWS V14.01,2013-02-08 22:20:00,
2013-02-08 17:25:00,32.9,32.9,29.09,NE,43,16.1,16.1,100,0.00,,---,0.00,VWS V14.01,2013-02-08 22:25:00,
2013-02-08 17:30:00,32.9,32.9,29.09,NNE,13,0.0,0.0,100,0.00,,---,0.00,VWS V14.01,2013-02-08 22:30:00,
2013-02-08 17:35:00,32.9,32.9,29.09,ENE,64,15.2,15.2,100,0.00,,---,0.00,VWS V14.01,2013-02-08 22:35:00,
2013-02-08 17:40:00,32.9,32.9,29.09,NNE,18,12.5,12.5,100,0.00,,---,0.00,VWS V14.01,2013-02-08 22:40:00,
2013-02-08 17:45:00,32.9,32.9,29.06,NE,40,21.0,21.0,100,0.00,,---,0.00,VWS V14.01,2013-02-08 22:45:00,
2013-02-08 17:50:00,32.9,32.9,29.06,NE,38,29.1,29.1,100,0.00,,---,0.00,VWS V14.01,2013-02-08 22:50:00,
2013-02-08 17:55:00,32.9,32.9,29.06,East,86,11.6,11.6,100,0.00,,---,0.00,VWS V14.01,2013-02-08 22:55:00,
2013-02-08 18:00:00,32.9,32.9,29.06,ESE,106,12.5,12.5,100,0.00,,---,0.00,VWS V14.01,2013-02-08 23:00:00,
2013-02-08 18:06:00,32.9,32.9,29.06,North,1,16.6,16.6,100,0.00,,---,0.00,VWS V14.01,2013-02-08 23:06:00,
2013-02-08 18:11:00,32.9,32.9,29.06,NE,48,22.8,22.8,100,0.00,,---,0.00,VWS V14.01,2013-02-08 23:11:00,
2013-02-08 18:21:00,32.9,32.9,29.06,NE,34,16.1,16.1,100,0.00,,---,0.00,VWS V14.01,2013-02-08 23:21:00,
2013-02-08 18:26:00,32.7,32.7,29.03,ENE,60,12.5,12.5,100,0.00,,---,0.00,VWS V14.01,2013-02-08 23:26:00,
2013-02-08 18:31:00,32.7,32.7,29.03,North,357,26.4,26.4,100,0.00,,---,0.00,VWS V14.01,2013-02-08 23:31:00,
2013-02-08 18:36:00,32.7,32.7,29.03,NE,51,21.9,21.9,100,0.00,,---,0.00,VWS V14.01,2013-02-08 23:36:00,
2013-02-08 18:41:00,32.7,32.7,29.03,NE,55,15.2,15.2,100,0.00,,---,0.00,VWS V14.01,2013-02-08 23:41:00,
2013-02-08 18:46:00,32.7,32.7,29.03,East,90,11.6,11.6,100,0.00,,---,0.00,VWS V14.01,2013-02-08 23:46:00,
2013-02-08 18:51:00,32.7,32.7,29.03,NNE,31,25.5,25.5,100,0.00,,---,0.00,VWS V14.01,2013-02-08 23:51:00,
2013-02-08 18:56:00,32.7,32.7,29.03,NE,48,0.0,0.0,100,0.00,,---,0.00,VWS V14.01,2013-02-08 23:56:00,
2013-02-08 19:01:00,32.7,32.7,29.03,NNE,17,17.4,17.4,100,0.00,,---,0.00,VWS V14.01,2013-02-09 00:01:00,
2013-02-08 19:06:00,32.7,32.7,29.03,NE,34,9.8,29.1,100,0.00,,---,0.00,VWS V14.01,2013-02-09 00:06:00,
2013-02-08 19:11:00,32.7,32.7,28.97,ENE,57,0.0,16.6,100,0.00,,---,0.00,VWS V14.01,2013-02-09 00:11:00,
2013-02-08 19:16:00,32.7,32.7,28.97,NNE,21,0.0,0.0,100,0.00,,---,0.00,VWS V14.01,2013-02-09 00:16:00,
2013-02-08 19:21:00,32.5,32.5,28.97,NNE,23,0.0,0.0,100,0.00,,---,0.00,VWS V14.01,2013-02-09 00:21:00,
2013-02-08 19:26:00,32.5,32.5,28.97,ENE,63,0.0,21.0,100,0.00,,---,0.00,VWS V14.01,2013-02-09 00:26:00,
2013-02-08 19:31:00,32.5,32.5,28.97,North,9,12.5,12.5,100,0.00,,---,0.00,VWS V14.01,2013-02-09 00:31:00,
2013-02-08 19:36:00,32.5,32.5,28.97,NNE,17,0.0,0.0,100,0.00,,---,0.00,VWS V14.01,2013-02-09 00:36:00,
2013-02-08 19:41:00,32.5,32.5,28.97,ENE,70,12.5,12.5,100,0.00,,---,0.00,VWS V14.01,2013-02-09 00:41:00,
2013-02-08 19:46:00,32.5,32.5,28.97,NE,39,14.3,14.3,100,0.00,,---,0.00,VWS V14.01,2013-02-09 00:46:00,
2013-02-08 19:51:00,32.5,32.5,28.97,NNW,345,30.9,30.9,100,0.00,,---,0.00,VWS V14.01,2013-02-09 00:51:00,
2013-02-08 19:56:00,32.5,32.5,28.97,NNE,21,0.0,0.0,100,0.00,,---,0.00,VWS V14.01,2013-02-09 00:56:00,
2013-02-08 20:01:00,32.5,32.5,28.91,NNE,31,29.1,29.1,100,0.00,,---,0.00,VWS V14.01,2013-02-09 01:01:00,
2013-02-08 20:06:00,32.5,32.5,28.91,NE,40,0.0,15.2,100,0.00,,---,0.00,VWS V14.01,2013-02-09 01:06:00,
2013-02-08 20:11:00,32.5,32.5,28.91,NE,46,10.7,16.1,100,0.00,,---,0.00,VWS V14.01,2013-02-09 01:11:00,
2013-02-08 20:16:00,32.5,32.5,28.91,ENE,57,17.4,17.4,100,0.00,,---,0.00,VWS V14.01,2013-02-09 01:16:00,
2013-02-08 20:21:00,32.5,32.5,28.91,North,353,0.0,0.0,100,0.00,,---,0.00,VWS V14.01,2013-02-09 01:21:00,
2013-02-08 20:26:00,32.5,32.5,28.91,North,7,21.0,28.2,100,0.00,,---,0.00,VWS V14.01,2013-02-09 01:26:00,
2013-02-08 20:31:00,32.5,32.5,28.91,NE,41,17.4,17.4,100,0.04,,---,0.04,VWS V14.01,2013-02-09 01:31:00,
2013-02-08 20:36:00,32.4,32.4,28.91,NE,50,21.9,21.9,100,0.04,,---,0.04,VWS V14.01,2013-02-09 01:36:00,
2013-02-08 20:41:00,32.4,32.4,28.91,NNE,12,0.0,0.0,100,0.04,,---,0.04,VWS V14.01,2013-02-09 01:41:00,
2013-02-08 20:46:00,32.4,32.4,28.85,NE,38,11.6,30.0,100,0.04,,---,0.04,VWS V14.01,2013-02-09 01:46:00,
2013-02-08 20:51:00,32.4,32.4,28.85,NE,41,0.0,0.0,100,0.04,,---,0.04,VWS V14.01,2013-02-09 01:51:00,
2013-02-08 20:56:00,32.4,32.4,28.85,NNE,32,0.0,0.0,100,0.04,,---,0.04,VWS V14.01,2013-02-09 01:56:00,
2013-02-08 21:01:00,32.2,32.2,28.85,NE,53,0.0,0.0,100,0.04,,---,0.04,VWS V14.01,2013-02-09 02:01:00,
2013-02-08 21:06:00,32.2,32.2,28.85,NE,55,6.3,6.3,100,0.04,,---,0.04,VWS V14.01,2013-02-09 02:06:00,
2013-02-08 21:11:00,32.0,32.0,28.82,NE,46,16.6,30.0,100,0.04,,---,0.04,VWS V14.01,2013-02-09 02:11:00,
2013-02-08 21:16:00,31.8,31.8,28.82,NNW,343,0.0,17.4,100,0.04,,---,0.04,VWS V14.01,2013-02-09 02:16:00,
2013-02-08 21:21:00,31.5,31.5,28.82,North,8,0.0,0.0,100,0.04,,---,0.04,VWS V14.01,2013-02-09 02:21:00,
2013-02-08 21:26:00,30.4,30.4,28.85,North,353,0.0,0.0,100,0.04,,---,0.04,VWS V14.01,2013-02-09 02:26:00,
2013-02-08 21:31:00,29.7,29.7,28.85,NNE,12,0.0,0.0,100,0.00,,---,0.04,VWS V14.01,2013-02-09 02:31:00,
2013-02-08 21:36:00,29.1,29.1,28.85,North,5,0.0,0.0,100,0.00,,---,0.04,VWS V14.01,2013-02-09 02:36:00,
2013-02-08 21:41:00,28.6,28.6,28.85,NNW,343,0.0,0.0,100,0.00,,---,0.04,VWS V14.01,2013-02-09 02:41:00,
2013-02-08 21:46:00,28.0,28.0,28.85,NNE,26,0.0,0.0,100,0.00,,---,0.04,VWS V14.01,2013-02-09 02:46:00,
2013-02-08 21:51:00,27.7,27.7,28.85,North,357,0.0,0.0,100,0.00,,---,0.04,VWS V14.01,2013-02-09 02:51:00,
2013-02-08 21:56:00,27.5,27.5,28.85,North,11,0.0,0.0,100,0.00,,---,0.04,VWS V14.01,2013-02-09 02:56:00,
2013-02-08 22:01:00,27.5,27.5,28.85,NNW,329,0.0,0.0,100,0.00,,---,0.04,VWS V14.01,2013-02-09 03:01:00,
2013-02-08 22:06:00,27.1,27.1,28.85,North,2,0.0,0.0,100,0.00,,---,0.04,VWS V14.01,2013-02-09 03:06:00,
2013-02-08 22:11:00,27.0,27.0,28.82,NNE,20,0.0,0.0,100,0.00,,---,0.04,VWS V14.01,2013-02-09 03:11:00,
2013-02-08 22:16:00,26.6,26.6,28.82,NNW,340,0.0,0.0,100,0.00,,---,0.04,VWS V14.01,2013-02-09 03:16:00,
2013-02-08 22:21:00,26.1,26.1,28.82,North,357,0.0,0.0,100,0.00,,---,0.04,VWS V14.01,2013-02-09 03:21:00,
2013-02-08 22:26:00,25.7,25.7,28.82,North,8,0.0,0.0,100,0.00,,---,0.04,VWS V14.01,2013-02-09 03:26:00,
2013-02-08 22:31:00,25.2,25.2,28.82,NNW,348,0.0,0.0,100,0.00,,---,0.04,VWS V14.01,2013-02-09 03:31:00,
2013-02-08 22:36:00,24.8,24.8,28.82,NNE,13,0.0,0.0,100,0.00,,---,0.04,VWS V14.01,2013-02-09 03:36:00,
2013-02-08 22:41:00,24.6,24.6,28.82,NW,319,0.0,0.0,100,0.00,,---,0.04,VWS V14.01,2013-02-09 03:41:00,
2013-02-08 22:46:00,24.4,24.2,28.82,North,0,0.0,0.0,99,0.00,,---,0.04,VWS V14.01,2013-02-09 03:46:00,
2013-02-08 22:51:00,24.1,23.6,28.82,North,357,0.0,0.0,98,0.00,,---,0.04,VWS V14.01,2013-02-09 03:51:00,
2013-02-08 22:57:00,23.9,23.4,28.82,NNE,27,0.0,0.0,98,0.00,,---,0.04,VWS V14.01,2013-02-09 03:57:00,
2013-02-08 23:02:00,23.5,22.8,28.82,NNE,22,0.0,0.0,97,0.00,,---,0.04,VWS V14.01,2013-02-09 04:02:00,
2013-02-08 23:07:00,23.4,22.6,28.82,NNE,17,0.0,0.0,97,0.00,,---,0.04,VWS V14.01,2013-02-09 04:07:00,
2013-02-08 23:12:00,23.2,22.2,28.82,NE,42,0.0,0.0,96,0.00,,---,0.04,VWS V14.01,2013-02-09 04:12:00,
2013-02-08 23:17:00,23.0,22.0,28.82,North,357,0.0,0.0,96,0.00,,---,0.04,VWS V14.01,2013-02-09 04:17:00,
2013-02-08 23:22:00,23.0,22.0,28.82,NNW,330,0.0,0.0,96,0.00,,---,0.04,VWS V14.01,2013-02-09 04:22:00,
2013-02-08 23:27:00,22.8,21.9,28.82,NNW,327,0.0,0.0,96,0.00,,---,0.04,VWS V14.01,2013-02-09 04:27:00,
2013-02-08 23:32:00,22.8,21.9,28.82,NNE,22,0.0,0.0,96,0.00,,---,0.04,VWS V14.01,2013-02-09 04:32:00,
2013-02-08 23:37:00,22.8,21.9,28.82,North,353,0.0,0.0,96,0.00,,---,0.04,VWS V14.01,2013-02-09 04:37:00,
2013-02-08 23:42:00,22.6,21.4,28.85,NE,35,0.0,0.0,95,0.00,,---,0.04,VWS V14.01,2013-02-09 04:42:00,
2013-02-08 23:47:00,22.3,20.8,28.85,North,1,0.0,0.0,94,0.00,,---,0.04,VWS V14.01,2013-02-09 04:47:00,
2013-02-08 23:52:00,21.9,20.2,28.85,North,11,0.0,0.0,93,0.00,,---,0.04,VWS V14.01,2013-02-09 04:52:00,
2013-02-08 23:57:00,21.7,19.8,28.85,North,0,0.0,0.0,92,0.00,,---,0.04,VWS V14.01,2013-02-09 04:57:00,